TTPP/POS METAR and TAF weather

Enter ICAO airport designator
Station Type Date Time Source
TTPP METAR 2019/02/17 15:00 UTC NOAA

TTPP 171500Z 12015KT 9999 SCT022 30/21 Q1017 NOSIG RMK FU E


Station Type Date Time Source
TTPP Decoded METAR 2019/02/17 15:00 UTC NOAA

Piarco International Airport, Trinidad, Trinidad and Tobago (TTPP) 10-37N 061-21W 15M
Feb 17, 2019 - 10:00 AM EST / 2019.02.17 1500 UTC
Wind: from the ESE (120 degrees) at 17 MPH (15 KT):0
Visibility: greater than 7 mile(s):0
Sky conditions: partly cloudy
Temperature: 86 F (30 C)
Dew Point: 69 F (21 C)
Relative Humidity: 58%
Pressure (altimeter): 30.03 in. Hg (1017 hPa)
ob: TTPP 171500Z 12015KT 9999 SCT022 30/21 Q1017 NOSIG RMK FU E
cycle: 15

Station Type Date Time Source
TTPP TAF 2019/02/17 12:23 UTC NOAA

TAF TTPP 171000Z 1712/1812 12015KT 9999 FEW018
BECMG 1723/1801 11005KT


Example: see airport list